sensor_id;sensor_type;location;lat;lon;timestamp;P1;durP1;ratioP1;P2;durP2;ratioP2
37559;SDS011;23398;50.928;7.084;2023-05-14T00:00:42;3.85;;;3.28;;
37559;SDS011;23398;50.928;7.084;2023-05-14T00:03:08;3.75;;;3.33;;
37559;SDS011;23398;50.928;7.084;2023-05-14T00:05:34;4.95;;;3.30;;
37559;SDS011;23398;50.928;7.084;2023-05-14T00:07:59;4.18;;;3.33;;
37559;SDS011;23398;50.928;7.084;2023-05-14T00:10:25;3.60;;;2.97;;
37559;SDS011;23398;50.928;7.084;2023-05-14T00:12:51;3.63;;;3.33;;
37559;SDS011;23398;50.928;7.084;2023-05-14T00:15:17;4.25;;;3.20;;
37559;SDS011;23398;50.928;7.084;2023-05-14T00:17:43;4.40;;;3.03;;
37559;SDS011;23398;50.928;7.084;2023-05-14T00:20:09;4.50;;;3.40;;
37559;SDS011;23398;50.928;7.084;2023-05-14T00:22:36;3.78;;;2.90;;
37559;SDS011;23398;50.928;7.084;2023-05-14T00:25:02;2.88;;;2.55;;
37559;SDS011;23398;50.928;7.084;2023-05-14T00:27:28;4.03;;;2.58;;
37559;SDS011;23398;50.928;7.084;2023-05-14T00:29:54;3.00;;;2.80;;
37559;SDS011;23398;50.928;7.084;2023-05-14T00:32:19;3.08;;;2.78;;
37559;SDS011;23398;50.928;7.084;2023-05-14T00:34:45;2.60;;;2.40;;
37559;SDS011;23398;50.928;7.084;2023-05-14T00:37:11;3.08;;;1.90;;
37559;SDS011;23398;50.928;7.084;2023-05-14T00:39:36;4.22;;;2.30;;
37559;SDS011;23398;50.928;7.084;2023-05-14T00:42:02;3.70;;;2.75;;
37559;SDS011;23398;50.928;7.084;2023-05-14T00:44:28;3.28;;;2.90;;
37559;SDS011;23398;50.928;7.084;2023-05-14T00:46:53;3.45;;;3.05;;
37559;SDS011;23398;50.928;7.084;2023-05-14T00:49:19;4.43;;;2.75;;
37559;SDS011;23398;50.928;7.084;2023-05-14T00:51:45;3.80;;;3.10;;
37559;SDS011;23398;50.928;7.084;2023-05-14T00:54:12;3.95;;;3.38;;
37559;SDS011;23398;50.928;7.084;2023-05-14T00:56:39;3.00;;;2.80;;
37559;SDS011;23398;50.928;7.084;2023-05-14T00:59:05;2.53;;;2.33;;
37559;SDS011;23398;50.928;7.084;2023-05-14T01:01:31;2.60;;;2.40;;
37559;SDS011;23398;50.928;7.084;2023-05-14T01:03:57;3.10;;;2.80;;
37559;SDS011;23398;50.928;7.084;2023-05-14T01:06:25;3.55;;;3.17;;
37559;SDS011;23398;50.928;7.084;2023-05-14T01:15:19;2.13;;;1.92;;
37559;SDS011;23398;50.928;7.084;2023-05-14T01:17:52;3.30;;;2.58;;
37559;SDS011;23398;50.928;7.084;2023-05-14T01:20:20;3.10;;;2.80;;
37559;SDS011;23398;50.928;7.084;2023-05-14T01:22:46;3.95;;;2.67;;
37559;SDS011;23398;50.928;7.084;2023-05-14T01:25:12;3.40;;;3.08;;
37559;SDS011;23398;50.928;7.084;2023-05-14T01:30:20;5.13;;;3.20;;
37559;SDS011;23398;50.928;7.084;2023-05-14T01:32:52;3.42;;;3.13;;
37559;SDS011;23398;50.928;7.084;2023-05-14T01:35:21;3.70;;;3.30;;
37559;SDS011;23398;50.928;7.084;2023-05-14T01:37:49;5.00;;;4.22;;
37559;SDS011;23398;50.928;7.084;2023-05-14T01:40:17;5.70;;;5.10;;
37559;SDS011;23398;50.928;7.084;2023-05-14T01:42:43;6.03;;;5.40;;
37559;SDS011;23398;50.928;7.084;2023-05-14T01:45:09;4.95;;;4.55;;
37559;SDS011;23398;50.928;7.084;2023-05-14T01:47:35;5.22;;;4.13;;
37559;SDS011;23398;50.928;7.084;2023-05-14T01:50:00;3.83;;;3.50;;
37559;SDS011;23398;50.928;7.084;2023-05-14T01:52:26;3.00;;;2.80;;
37559;SDS011;23398;50.928;7.084;2023-05-14T01:54:52;3.25;;;2.90;;
37559;SDS011;23398;50.928;7.084;2023-05-14T01:57:17;3.45;;;3.15;;
37559;SDS011;23398;50.928;7.084;2023-05-14T01:59:43;3.63;;;3.25;;
37559;SDS011;23398;50.928;7.084;2023-05-14T02:02:09;3.70;;;3.33;;
37559;SDS011;23398;50.928;7.084;2023-05-14T02:04:34;3.47;;;3.17;;
37559;SDS011;23398;50.928;7.084;2023-05-14T02:07:00;3.58;;;3.28;;
37559;SDS011;23398;50.928;7.084;2023-05-14T02:09:25;3.53;;;2.80;;
37559;SDS011;23398;50.928;7.084;2023-05-14T02:11:51;4.53;;;2.88;;
37559;SDS011;23398;50.928;7.084;2023-05-14T02:14:16;3.53;;;2.67;;
37559;SDS011;23398;50.928;7.084;2023-05-14T02:16:42;5.20;;;3.10;;
37559;SDS011;23398;50.928;7.084;2023-05-14T02:19:07;3.20;;;2.90;;
37559;SDS011;23398;50.928;7.084;2023-05-14T02:21:33;4.82;;;2.95;;
37559;SDS011;23398;50.928;7.084;2023-05-14T02:23:59;3.50;;;3.20;;
37559;SDS011;23398;50.928;7.084;2023-05-14T02:26:24;4.13;;;3.50;;
37559;SDS011;23398;50.928;7.084;2023-05-14T02:28:50;3.47;;;3.17;;
37559;SDS011;23398;50.928;7.084;2023-05-14T02:31:16;3.45;;;3.15;;
37559;SDS011;23398;50.928;7.084;2023-05-14T02:33:43;3.75;;;2.83;;
37559;SDS011;23398;50.928;7.084;2023-05-14T02:36:08;5.68;;;3.40;;
37559;SDS011;23398;50.928;7.084;2023-05-14T02:38:34;4.10;;;3.13;;
37559;SDS011;23398;50.928;7.084;2023-05-14T02:41:00;2.90;;;2.38;;
37559;SDS011;23398;50.928;7.084;2023-05-14T02:43:25;3.15;;;2.85;;
37559;SDS011;23398;50.928;7.084;2023-05-14T02:45:51;3.17;;;2.92;;
37559;SDS011;23398;50.928;7.084;2023-05-14T02:48:16;3.33;;;3.03;;
37559;SDS011;23398;50.928;7.084;2023-05-14T02:50:42;3.10;;;2.80;;
37559;SDS011;23398;50.928;7.084;2023-05-14T02:53:07;5.63;;;3.10;;
37559;SDS011;23398;50.928;7.084;2023-05-14T02:55:34;3.53;;;3.22;;
37559;SDS011;23398;50.928;7.084;2023-05-14T02:58:00;3.58;;;3.28;;
37559;SDS011;23398;50.928;7.084;2023-05-14T03:00:25;4.25;;;3.00;;
37559;SDS011;23398;50.928;7.084;2023-05-14T03:02:51;3.20;;;2.85;;
37559;SDS011;23398;50.928;7.084;2023-05-14T03:05:16;3.67;;;3.38;;
37559;SDS011;23398;50.928;7.084;2023-05-14T03:07:42;3.40;;;3.10;;
37559;SDS011;23398;50.928;7.084;2023-05-14T03:10:08;3.78;;;2.95;;
37559;SDS011;23398;50.928;7.084;2023-05-14T03:12:34;3.78;;;3.33;;
37559;SDS011;23398;50.928;7.084;2023-05-14T03:14:59;3.70;;;3.40;;
37559;SDS011;23398;50.928;7.084;2023-05-14T03:17:25;4.80;;;3.70;;
37559;SDS011;23398;50.928;7.084;2023-05-14T03:19:50;3.78;;;3.47;;
37559;SDS011;23398;50.928;7.084;2023-05-14T03:22:16;3.67;;;3.38;;
37559;SDS011;23398;50.928;7.084;2023-05-14T03:24:41;4.43;;;3.72;;
37559;SDS011;23398;50.928;7.084;2023-05-14T03:27:07;3.78;;;3.47;;
37559;SDS011;23398;50.928;7.084;2023-05-14T03:29:32;4.13;;;3.72;;
37559;SDS011;23398;50.928;7.084;2023-05-14T03:31:58;4.20;;;3.80;;
37559;SDS011;23398;50.928;7.084;2023-05-14T03:34:23;4.03;;;3.63;;
37559;SDS011;23398;50.928;7.084;2023-05-14T03:36:49;3.75;;;3.42;;
37559;SDS011;23398;50.928;7.084;2023-05-14T03:39:14;4.25;;;3.85;;
37559;SDS011;23398;50.928;7.084;2023-05-14T03:41:44;3.58;;;3.28;;
37559;SDS011;23398;50.928;7.084;2023-05-14T03:44:10;3.78;;;3.47;;
37559;SDS011;23398;50.928;7.084;2023-05-14T03:46:36;4.43;;;3.47;;
37559;SDS011;23398;50.928;7.084;2023-05-14T03:49:02;5.22;;;3.47;;
37559;SDS011;23398;50.928;7.084;2023-05-14T03:51:27;3.83;;;3.40;;
37559;SDS011;23398;50.928;7.084;2023-05-14T03:53:53;4.82;;;3.50;;
37559;SDS011;23398;50.928;7.084;2023-05-14T03:56:19;4.50;;;2.95;;
37559;SDS011;23398;50.928;7.084;2023-05-14T03:58:46;3.35;;;2.83;;
37559;SDS011;23398;50.928;7.084;2023-05-14T04:01:13;3.25;;;2.80;;
37559;SDS011;23398;50.928;7.084;2023-05-14T04:03:38;3.50;;;3.20;;
37559;SDS011;23398;50.928;7.084;2023-05-14T04:06:04;3.67;;;3.38;;
37559;SDS011;23398;50.928;7.084;2023-05-14T04:08:30;3.30;;;3.00;;
37559;SDS011;23398;50.928;7.084;2023-05-14T04:10:55;3.45;;;2.90;;
37559;SDS011;23398;50.928;7.084;2023-05-14T04:13:21;4.68;;;2.75;;
37559;SDS011;23398;50.928;7.084;2023-05-14T04:15:47;3.22;;;2.88;;
37559;SDS011;23398;50.928;7.084;2023-05-14T04:18:12;4.20;;;3.30;;
37559;SDS011;23398;50.928;7.084;2023-05-14T04:20:38;3.67;;;3.20;;
37559;SDS011;23398;50.928;7.084;2023-05-14T04:23:04;3.65;;;3.35;;
37559;SDS011;23398;50.928;7.084;2023-05-14T04:25:30;4.05;;;3.50;;
37559;SDS011;23398;50.928;7.084;2023-05-14T04:27:56;3.70;;;3.40;;
37559;SDS011;23398;50.928;7.084;2023-05-14T04:30:22;4.03;;;3.65;;
37559;SDS011;23398;50.928;7.084;2023-05-14T04:32:48;3.97;;;3.40;;
37559;SDS011;23398;50.928;7.084;2023-05-14T04:35:13;3.78;;;3.47;;
37559;SDS011;23398;50.928;7.084;2023-05-14T04:37:39;3.67;;;3.30;;
37559;SDS011;23398;50.928;7.084;2023-05-14T04:40:05;5.05;;;3.42;;
37559;SDS011;23398;50.928;7.084;2023-05-14T04:42:32;4.25;;;3.78;;
37559;SDS011;23398;50.928;7.084;2023-05-14T04:44:57;5.43;;;3.55;;
37559;SDS011;23398;50.928;7.084;2023-05-14T04:47:23;4.03;;;3.58;;
37559;SDS011;23398;50.928;7.084;2023-05-14T04:49:50;4.20;;;3.72;;
37559;SDS011;23398;50.928;7.084;2023-05-14T04:52:16;4.35;;;3.92;;
37559;SDS011;23398;50.928;7.084;2023-05-14T04:54:41;3.90;;;3.60;;
37559;SDS011;23398;50.928;7.084;2023-05-14T04:57:07;5.50;;;3.60;;
37559;SDS011;23398;50.928;7.084;2023-05-14T04:59:32;3.97;;;3.60;;
37559;SDS011;23398;50.928;7.084;2023-05-14T05:01:58;4.72;;;3.72;;
37559;SDS011;23398;50.928;7.084;2023-05-14T05:04:23;4.07;;;3.72;;
37559;SDS011;23398;50.928;7.084;2023-05-14T05:06:50;4.38;;;3.88;;
37559;SDS011;23398;50.928;7.084;2023-05-14T05:09:16;3.72;;;3.40;;
37559;SDS011;23398;50.928;7.084;2023-05-14T05:11:42;4.43;;;4.00;;
37559;SDS011;23398;50.928;7.084;2023-05-14T05:14:08;5.78;;;4.13;;
37559;SDS011;23398;50.928;7.084;2023-05-14T05:16:34;5.55;;;3.72;;
37559;SDS011;23398;50.928;7.084;2023-05-14T05:18:59;7.22;;;3.97;;
37559;SDS011;23398;50.928;7.084;2023-05-14T05:21:25;4.25;;;3.85;;
37559;SDS011;23398;50.928;7.084;2023-05-14T05:23:50;4.25;;;3.85;;
37559;SDS011;23398;50.928;7.084;2023-05-14T05:26:16;4.18;;;3.80;;
37559;SDS011;23398;50.928;7.084;2023-05-14T05:28:42;3.83;;;3.40;;
37559;SDS011;23398;50.928;7.084;2023-05-14T05:31:07;4.32;;;3.92;;
37559;SDS011;23398;50.928;7.084;2023-05-14T05:33:33;4.55;;;4.15;;
37559;SDS011;23398;50.928;7.084;2023-05-14T05:35:59;4.43;;;4.03;;
37559;SDS011;23398;50.928;7.084;2023-05-14T05:38:25;4.05;;;3.75;;
37559;SDS011;23398;50.928;7.084;2023-05-14T05:40:50;4.70;;;3.85;;
37559;SDS011;23398;50.928;7.084;2023-05-14T05:43:16;5.30;;;4.80;;
37559;SDS011;23398;50.928;7.084;2023-05-14T05:45:42;4.70;;;4.20;;
37559;SDS011;23398;50.928;7.084;2023-05-14T05:48:08;5.55;;;4.72;;
37559;SDS011;23398;50.928;7.084;2023-05-14T05:50:33;5.72;;;5.22;;
37559;SDS011;23398;50.928;7.084;2023-05-14T05:52:59;5.80;;;5.20;;
37559;SDS011;23398;50.928;7.084;2023-05-14T05:55:25;6.72;;;5.18;;
37559;SDS011;23398;50.928;7.084;2023-05-14T05:57:50;7.30;;;5.18;;
37559;SDS011;23398;50.928;7.084;2023-05-14T06:00:16;5.53;;;5.05;;
37559;SDS011;23398;50.928;7.084;2023-05-14T06:02:42;5.50;;;5.00;;
37559;SDS011;23398;50.928;7.084;2023-05-14T06:05:10;6.35;;;5.63;;
37559;SDS011;23398;50.928;7.084;2023-05-14T06:07:36;6.60;;;5.90;;
37559;SDS011;23398;50.928;7.084;2023-05-14T06:10:02;6.40;;;5.80;;
37559;SDS011;23398;50.928;7.084;2023-05-14T06:12:28;6.85;;;6.03;;
37559;SDS011;23398;50.928;7.084;2023-05-14T06:14:54;6.85;;;5.80;;
37559;SDS011;23398;50.928;7.084;2023-05-14T06:17:21;6.75;;;6.05;;
37559;SDS011;23398;50.928;7.084;2023-05-14T06:19:50;7.40;;;6.57;;
37559;SDS011;23398;50.928;7.084;2023-05-14T06:22:16;7.03;;;6.32;;
37559;SDS011;23398;50.928;7.084;2023-05-14T06:24:42;7.47;;;6.80;;
37559;SDS011;23398;50.928;7.084;2023-05-14T06:27:08;7.38;;;6.70;;
37559;SDS011;23398;50.928;7.084;2023-05-14T06:29:35;7.57;;;6.88;;
37559;SDS011;23398;50.928;7.084;2023-05-14T06:32:01;7.30;;;6.60;;
37559;SDS011;23398;50.928;7.084;2023-05-14T06:34:28;6.32;;;5.72;;
37559;SDS011;23398;50.928;7.084;2023-05-14T06:36:54;7.53;;;5.88;;
37559;SDS011;23398;50.928;7.084;2023-05-14T06:39:20;6.40;;;5.80;;
37559;SDS011;23398;50.928;7.084;2023-05-14T06:41:45;6.40;;;5.80;;
37559;SDS011;23398;50.928;7.084;2023-05-14T06:44:11;6.30;;;5.70;;
37559;SDS011;23398;50.928;7.084;2023-05-14T06:46:36;5.82;;;5.32;;
37559;SDS011;23398;50.928;7.084;2023-05-14T06:49:02;6.45;;;5.18;;
37559;SDS011;23398;50.928;7.084;2023-05-14T06:51:28;5.45;;;4.88;;
37559;SDS011;23398;50.928;7.084;2023-05-14T06:53:56;4.90;;;4.20;;
37559;SDS011;23398;50.928;7.084;2023-05-14T06:56:22;4.90;;;4.43;;
37559;SDS011;23398;50.928;7.084;2023-05-14T06:58:47;4.32;;;3.88;;
37559;SDS011;23398;50.928;7.084;2023-05-14T07:01:13;4.28;;;3.85;;
37559;SDS011;23398;50.928;7.084;2023-05-14T07:03:38;3.80;;;3.50;;
37559;SDS011;23398;50.928;7.084;2023-05-14T07:06:04;4.35;;;3.50;;
37559;SDS011;23398;50.928;7.084;2023-05-14T07:08:30;3.80;;;3.40;;
37559;SDS011;23398;50.928;7.084;2023-05-14T07:10:56;4.35;;;3.47;;
37559;SDS011;23398;50.928;7.084;2023-05-14T07:13:22;3.20;;;2.92;;
37559;SDS011;23398;50.928;7.084;2023-05-14T07:15:48;3.08;;;2.88;;
37559;SDS011;23398;50.928;7.084;2023-05-14T07:18:15;4.20;;;2.95;;
37559;SDS011;23398;50.928;7.084;2023-05-14T07:20:41;4.05;;;2.80;;
37559;SDS011;23398;50.928;7.084;2023-05-14T07:23:06;2.88;;;2.67;;
37559;SDS011;23398;50.928;7.084;2023-05-14T07:25:32;2.95;;;2.70;;
37559;SDS011;23398;50.928;7.084;2023-05-14T07:27:57;2.72;;;2.53;;
37559;SDS011;23398;50.928;7.084;2023-05-14T07:30:23;3.08;;;2.45;;
37559;SDS011;23398;50.928;7.084;2023-05-14T07:32:49;2.67;;;2.30;;
37559;SDS011;23398;50.928;7.084;2023-05-14T07:35:14;5.00;;;2.47;;
37559;SDS011;23398;50.928;7.084;2023-05-14T07:37:40;2.50;;;2.30;;
37559;SDS011;23398;50.928;7.084;2023-05-14T07:40:07;3.58;;;2.58;;
37559;SDS011;23398;50.928;7.084;2023-05-14T07:42:33;3.70;;;2.38;;
37559;SDS011;23398;50.928;7.084;2023-05-14T07:44:59;2.60;;;2.40;;
37559;SDS011;23398;50.928;7.084;2023-05-14T07:47:24;2.58;;;2.33;;
37559;SDS011;23398;50.928;7.084;2023-05-14T07:49:53;2.30;;;2.10;;
37559;SDS011;23398;50.928;7.084;2023-05-14T07:52:20;2.55;;;2.17;;
37559;SDS011;23398;50.928;7.084;2023-05-14T07:54:46;2.95;;;2.30;;
37559;SDS011;23398;50.928;7.084;2023-05-14T07:57:12;2.65;;;2.28;;
37559;SDS011;23398;50.928;7.084;2023-05-14T07:59:37;3.17;;;2.20;;
37559;SDS011;23398;50.928;7.084;2023-05-14T08:02:03;2.40;;;2.15;;
37559;SDS011;23398;50.928;7.084;2023-05-14T08:04:29;2.28;;;2.10;;
37559;SDS011;23398;50.928;7.084;2023-05-14T08:06:54;2.22;;;2.03;;
37559;SDS011;23398;50.928;7.084;2023-05-14T08:09:22;2.42;;;2.22;;
37559;SDS011;23398;50.928;7.084;2023-05-14T08:11:47;2.35;;;2.10;;
37559;SDS011;23398;50.928;7.084;2023-05-14T08:14:13;2.22;;;2.03;;
37559;SDS011;23398;50.928;7.084;2023-05-14T08:16:39;1.95;;;1.85;;
37559;SDS011;23398;50.928;7.084;2023-05-14T08:19:04;2.50;;;2.00;;
37559;SDS011;23398;50.928;7.084;2023-05-14T08:21:30;2.78;;;2.10;;
37559;SDS011;23398;50.928;7.084;2023-05-14T08:23:56;2.65;;;2.00;;
37559;SDS011;23398;50.928;7.084;2023-05-14T08:26:22;2.35;;;2.15;;
37559;SDS011;23398;50.928;7.084;2023-05-14T08:28:47;2.00;;;1.80;;
37559;SDS011;23398;50.928;7.084;2023-05-14T08:31:13;2.17;;;2.00;;
37559;SDS011;23398;50.928;7.084;2023-05-14T08:33:39;2.03;;;1.92;;
37559;SDS011;23398;50.928;7.084;2023-05-14T08:36:05;1.98;;;1.88;;
37559;SDS011;23398;50.928;7.084;2023-05-14T08:38:31;1.92;;;1.83;;
37559;SDS011;23398;50.928;7.084;2023-05-14T08:40:57;1.98;;;1.88;;
37559;SDS011;23398;50.928;7.084;2023-05-14T08:43:28;2.25;;;2.00;;
37559;SDS011;23398;50.928;7.084;2023-05-14T08:46:01;2.03;;;1.92;;
37559;SDS011;23398;50.928;7.084;2023-05-14T08:48:31;2.33;;;2.00;;
37559;SDS011;23398;50.928;7.084;2023-05-14T08:50:58;2.20;;;2.05;;
37559;SDS011;23398;50.928;7.084;2023-05-14T08:53:24;2.40;;;2.17;;
37559;SDS011;23398;50.928;7.084;2023-05-14T08:55:50;2.38;;;2.15;;
37559;SDS011;23398;50.928;7.084;2023-05-14T08:58:18;1.92;;;1.80;;
37559;SDS011;23398;50.928;7.084;2023-05-14T09:00:43;2.88;;;1.83;;
37559;SDS011;23398;50.928;7.084;2023-05-14T09:03:09;1.83;;;1.70;;
37559;SDS011;23398;50.928;7.084;2023-05-14T09:05:36;2.30;;;2.10;;
37559;SDS011;23398;50.928;7.084;2023-05-14T09:08:02;2.20;;;1.88;;
37559;SDS011;23398;50.928;7.084;2023-05-14T09:10:28;2.35;;;2.15;;
37559;SDS011;23398;50.928;7.084;2023-05-14T09:12:53;2.30;;;2.10;;
37559;SDS011;23398;50.928;7.084;2023-05-14T09:15:19;2.75;;;2.20;;
37559;SDS011;23398;50.928;7.084;2023-05-14T09:17:44;2.17;;;2.08;;
37559;SDS011;23398;50.928;7.084;2023-05-14T09:20:12;2.25;;;2.10;;
37559;SDS011;23398;50.928;7.084;2023-05-14T09:22:39;2.20;;;2.10;;
37559;SDS011;23398;50.928;7.084;2023-05-14T09:25:05;2.30;;;2.10;;
37559;SDS011;23398;50.928;7.084;2023-05-14T09:27:34;3.17;;;2.20;;
37559;SDS011;23398;50.928;7.084;2023-05-14T09:30:03;3.25;;;2.05;;
37559;SDS011;23398;50.928;7.084;2023-05-14T09:32:40;4.13;;;2.20;;
37559;SDS011;23398;50.928;7.084;2023-05-14T09:35:08;2.20;;;2.00;;
37559;SDS011;23398;50.928;7.084;2023-05-14T09:37:42;2.55;;;2.00;;
37559;SDS011;23398;50.928;7.084;2023-05-14T09:40:13;2.40;;;2.20;;
37559;SDS011;23398;50.928;7.084;2023-05-14T09:42:39;2.78;;;2.33;;
37559;SDS011;23398;50.928;7.084;2023-05-14T09:45:06;2.38;;;2.20;;
37559;SDS011;23398;50.928;7.084;2023-05-14T09:47:32;3.17;;;2.25;;
37559;SDS011;23398;50.928;7.084;2023-05-14T09:49:58;2.08;;;1.98;;
37559;SDS011;23398;50.928;7.084;2023-05-14T09:52:23;2.30;;;2.10;;
37559;SDS011;23398;50.928;7.084;2023-05-14T09:54:50;2.20;;;2.00;;
37559;SDS011;23398;50.928;7.084;2023-05-14T09:57:17;2.10;;;2.00;;
37559;SDS011;23398;50.928;7.084;2023-05-14T09:59:43;1.90;;;1.80;;
37559;SDS011;23398;50.928;7.084;2023-05-14T10:02:15;2.47;;;2.28;;
37559;SDS011;23398;50.928;7.084;2023-05-14T10:04:49;2.63;;;2.13;;
37559;SDS011;23398;50.928;7.084;2023-05-14T10:07:16;2.00;;;1.90;;
37559;SDS011;23398;50.928;7.084;2023-05-14T10:09:46;2.63;;;2.10;;
37559;SDS011;23398;50.928;7.084;2023-05-14T10:12:11;2.17;;;2.08;;
37559;SDS011;23398;50.928;7.084;2023-05-14T10:14:46;2.00;;;1.90;;
37559;SDS011;23398;50.928;7.084;2023-05-14T10:17:15;2.03;;;1.92;;
37559;SDS011;23398;50.928;7.084;2023-05-14T10:19:47;2.17;;;2.00;;
37559;SDS011;23398;50.928;7.084;2023-05-14T10:22:17;2.45;;;1.98;;
37559;SDS011;23398;50.928;7.084;2023-05-14T10:24:46;2.50;;;2.30;;
37559;SDS011;23398;50.928;7.084;2023-05-14T10:27:16;2.30;;;2.10;;
37559;SDS011;23398;50.928;7.084;2023-05-14T10:29:46;2.47;;;2.28;;
37559;SDS011;23398;50.928;7.084;2023-05-14T10:32:19;1.90;;;1.80;;
37559;SDS011;23398;50.928;7.084;2023-05-14T10:34:46;2.38;;;1.90;;
37559;SDS011;23398;50.928;7.084;2023-05-14T10:37:21;1.85;;;1.75;;
37559;SDS011;23398;50.928;7.084;2023-05-14T10:44:51;2.30;;;2.10;;
37559;SDS011;23398;50.928;7.084;2023-05-14T10:47:18;1.90;;;1.80;;
37559;SDS011;23398;50.928;7.084;2023-05-14T10:49:44;1.98;;;1.77;;
37559;SDS011;23398;50.928;7.084;2023-05-14T10:52:14;2.15;;;1.73;;
37559;SDS011;23398;50.928;7.084;2023-05-14T10:54:51;1.88;;;1.77;;
37559;SDS011;23398;50.928;7.084;2023-05-14T10:57:18;2.33;;;2.10;;
37559;SDS011;23398;50.928;7.084;2023-05-14T10:59:49;2.30;;;2.10;;
37559;SDS011;23398;50.928;7.084;2023-05-14T11:07:18;4.70;;;2.80;;
37559;SDS011;23398;50.928;7.084;2023-05-14T11:09:49;2.30;;;2.08;;
37559;SDS011;23398;50.928;7.084;2023-05-14T11:12:15;2.72;;;2.20;;
37559;SDS011;23398;50.928;7.084;2023-05-14T11:14:42;2.72;;;2.40;;
37559;SDS011;23398;50.928;7.084;2023-05-14T11:17:07;3.15;;;2.25;;
37559;SDS011;23398;50.928;7.084;2023-05-14T11:19:33;2.67;;;2.20;;
37559;SDS011;23398;50.928;7.084;2023-05-14T11:21:59;2.38;;;2.17;;
37559;SDS011;23398;50.928;7.084;2023-05-14T11:24:25;2.42;;;2.22;;
37559;SDS011;23398;50.928;7.084;2023-05-14T11:26:51;3.90;;;3.50;;
37559;SDS011;23398;50.928;7.084;2023-05-14T11:29:19;3.92;;;3.40;;
37559;SDS011;23398;50.928;7.084;2023-05-14T11:31:45;4.90;;;3.20;;
37559;SDS011;23398;50.928;7.084;2023-05-14T11:34:11;4.00;;;2.90;;
37559;SDS011;23398;50.928;7.084;2023-05-14T11:36:37;3.50;;;2.67;;
37559;SDS011;23398;50.928;7.084;2023-05-14T11:39:02;2.78;;;2.58;;
37559;SDS011;23398;50.928;7.084;2023-05-14T11:41:28;5.72;;;3.80;;
37559;SDS011;23398;50.928;7.084;2023-05-14T11:43:55;3.53;;;3.20;;
37559;SDS011;23398;50.928;7.084;2023-05-14T11:46:21;3.88;;;2.70;;
37559;SDS011;23398;50.928;7.084;2023-05-14T11:48:48;2.58;;;2.38;;
37559;SDS011;23398;50.928;7.084;2023-05-14T11:51:13;6.60;;;2.88;;
37559;SDS011;23398;50.928;7.084;2023-05-14T11:53:39;3.50;;;2.67;;
37559;SDS011;23398;50.928;7.084;2023-05-14T11:56:05;3.58;;;2.80;;
37559;SDS011;23398;50.928;7.084;2023-05-14T11:58:31;2.95;;;2.75;;
37559;SDS011;23398;50.928;7.084;2023-05-14T12:00:57;3.20;;;2.90;;
37559;SDS011;23398;50.928;7.084;2023-05-14T12:03:23;3.95;;;2.90;;
37559;SDS011;23398;50.928;7.084;2023-05-14T12:05:56;4.47;;;2.80;;
37559;SDS011;23398;50.928;7.084;2023-05-14T12:08:27;3.08;;;2.78;;
37559;SDS011;23398;50.928;7.084;2023-05-14T12:10:54;2.80;;;2.50;;
37559;SDS011;23398;50.928;7.084;2023-05-14T12:13:26;3.40;;;2.80;;
37559;SDS011;23398;50.928;7.084;2023-05-14T12:15:56;2.72;;;2.53;;
37559;SDS011;23398;50.928;7.084;2023-05-14T12:18:24;2.97;;;2.67;;
37559;SDS011;23398;50.928;7.084;2023-05-14T12:20:52;6.20;;;2.63;;
37559;SDS011;23398;50.928;7.084;2023-05-14T12:23:28;2.47;;;2.28;;
37559;SDS011;23398;50.928;7.084;2023-05-14T12:25:54;4.65;;;2.80;;
37559;SDS011;23398;50.928;7.084;2023-05-14T12:28:30;3.35;;;2.80;;
37559;SDS011;23398;50.928;7.084;2023-05-14T12:30:56;3.45;;;3.15;;
37559;SDS011;23398;50.928;7.084;2023-05-14T12:33:23;3.22;;;2.90;;
37559;SDS011;23398;50.928;7.084;2023-05-14T12:35:50;3.72;;;2.60;;
37559;SDS011;23398;50.928;7.084;2023-05-14T12:38:25;2.78;;;2.58;;
37559;SDS011;23398;50.928;7.084;2023-05-14T12:40:52;4.00;;;3.10;;
37559;SDS011;23398;50.928;7.084;2023-05-14T12:43:18;3.50;;;2.88;;
37559;SDS011;23398;50.928;7.084;2023-05-14T12:45:44;3.30;;;2.75;;
37559;SDS011;23398;50.928;7.084;2023-05-14T12:48:09;4.47;;;2.72;;
37559;SDS011;23398;50.928;7.084;2023-05-14T12:50:37;2.97;;;2.78;;
37559;SDS011;23398;50.928;7.084;2023-05-14T12:53:03;3.38;;;3.08;;
37559;SDS011;23398;50.928;7.084;2023-05-14T12:55:29;4.25;;;2.63;;
37559;SDS011;23398;50.928;7.084;2023-05-14T12:57:55;3.50;;;2.65;;
37559;SDS011;23398;50.928;7.084;2023-05-14T13:00:21;2.85;;;2.65;;
37559;SDS011;23398;50.928;7.084;2023-05-14T13:02:47;2.75;;;2.40;;
37559;SDS011;23398;50.928;7.084;2023-05-14T13:05:12;3.05;;;2.55;;
37559;SDS011;23398;50.928;7.084;2023-05-14T13:07:38;2.47;;;2.28;;
37559;SDS011;23398;50.928;7.084;2023-05-14T13:10:04;3.17;;;2.78;;
37559;SDS011;23398;50.928;7.084;2023-05-14T13:12:30;2.70;;;2.25;;
37559;SDS011;23398;50.928;7.084;2023-05-14T13:14:56;3.53;;;2.80;;
37559;SDS011;23398;50.928;7.084;2023-05-14T13:17:21;2.60;;;2.40;;
37559;SDS011;23398;50.928;7.084;2023-05-14T13:19:47;2.92;;;2.63;;
37559;SDS011;23398;50.928;7.084;2023-05-14T13:22:13;3.00;;;2.50;;
37559;SDS011;23398;50.928;7.084;2023-05-14T13:24:40;2.60;;;2.40;;
37559;SDS011;23398;50.928;7.084;2023-05-14T13:27:06;2.95;;;2.42;;
37559;SDS011;23398;50.928;7.084;2023-05-14T13:29:32;4.15;;;2.67;;
37559;SDS011;23398;50.928;7.084;2023-05-14T13:31:57;2.78;;;2.33;;
37559;SDS011;23398;50.928;7.084;2023-05-14T13:34:23;2.50;;;2.30;;
37559;SDS011;23398;50.928;7.084;2023-05-14T13:36:48;2.10;;;1.90;;
37559;SDS011;23398;50.928;7.084;2023-05-14T13:39:14;2.25;;;1.70;;
37559;SDS011;23398;50.928;7.084;2023-05-14T13:41:40;2.13;;;1.65;;
37559;SDS011;23398;50.928;7.084;2023-05-14T13:44:06;1.75;;;1.63;;
37559;SDS011;23398;50.928;7.084;2023-05-14T13:46:31;1.80;;;1.70;;
37559;SDS011;23398;50.928;7.084;2023-05-14T13:48:57;3.65;;;1.90;;
37559;SDS011;23398;50.928;7.084;2023-05-14T13:51:23;1.70;;;1.60;;
37559;SDS011;23398;50.928;7.084;2023-05-14T13:53:48;2.03;;;1.70;;
37559;SDS011;23398;50.928;7.084;2023-05-14T13:56:14;2.47;;;1.80;;
37559;SDS011;23398;50.928;7.084;2023-05-14T13:58:40;2.45;;;1.70;;
37559;SDS011;23398;50.928;7.084;2023-05-14T14:01:05;2.00;;;1.80;;
37559;SDS011;23398;50.928;7.084;2023-05-14T14:03:31;2.13;;;1.90;;
37559;SDS011;23398;50.928;7.084;2023-05-14T14:05:57;2.42;;;1.90;;
37559;SDS011;23398;50.928;7.084;2023-05-14T14:08:22;1.83;;;1.70;;
37559;SDS011;23398;50.928;7.084;2023-05-14T14:10:48;2.63;;;1.80;;
37559;SDS011;23398;50.928;7.084;2023-05-14T14:13:13;1.70;;;1.60;;
37559;SDS011;23398;50.928;7.084;2023-05-14T14:15:39;1.83;;;1.67;;
37559;SDS011;23398;50.928;7.084;2023-05-14T14:18:05;2.83;;;1.75;;
37559;SDS011;23398;50.928;7.084;2023-05-14T14:20:31;5.57;;;1.83;;
37559;SDS011;23398;50.928;7.084;2023-05-14T14:22:56;2.00;;;1.80;;
37559;SDS011;23398;50.928;7.084;2023-05-14T14:25:22;1.77;;;1.63;;
37559;SDS011;23398;50.928;7.084;2023-05-14T14:27:48;1.65;;;1.50;;
37559;SDS011;23398;50.928;7.084;2023-05-14T14:30:14;1.67;;;1.58;;
37559;SDS011;23398;50.928;7.084;2023-05-14T14:32:44;1.80;;;1.70;;
37559;SDS011;23398;50.928;7.084;2023-05-14T14:35:11;2.83;;;1.58;;
37559;SDS011;23398;50.928;7.084;2023-05-14T14:37:38;1.70;;;1.60;;
37559;SDS011;23398;50.928;7.084;2023-05-14T14:40:06;2.08;;;1.75;;
37559;SDS011;23398;50.928;7.084;2023-05-14T14:42:34;1.88;;;1.77;;
37559;SDS011;23398;50.928;7.084;2023-05-14T14:45:01;2.70;;;1.70;;
37559;SDS011;23398;50.928;7.084;2023-05-14T14:47:27;1.85;;;1.55;;
37559;SDS011;23398;50.928;7.084;2023-05-14T14:49:54;2.60;;;1.65;;
37559;SDS011;23398;50.928;7.084;2023-05-14T14:52:20;2.63;;;1.80;;
37559;SDS011;23398;50.928;7.084;2023-05-14T14:54:46;2.38;;;1.65;;
37559;SDS011;23398;50.928;7.084;2023-05-14T14:57:12;2.35;;;1.70;;
37559;SDS011;23398;50.928;7.084;2023-05-14T14:59:37;2.38;;;1.60;;
37559;SDS011;23398;50.928;7.084;2023-05-14T15:02:03;2.63;;;1.90;;